TKJ11V LTFJ-BKPR
Flight info
| Callsign | TKJ11V |
|---|---|
| Flight time | 1h 13m |
| Altitude | 36000 |
| Route | BARPE UG12 GOLDO DCT SUTIS DCT DISOR DCT XAXAN XAXAN1D |
| Aircraft | B38M/M-SDE1FGHILORVWXY/HB1 |
Departure
| Time | 2026-04-18 09:04 |
|---|---|
| Airport | Istanbul Sabiha Gökçen International Airport (LTFJ) |
Arrival
| Time | 2026-04-18 10:17 |
|---|---|
| Airport | Priština Adem Jashari International Airport (BKPR) |
| Time | Latitude | Longitude | Altitude | Speed | Heading |
|---|---|---|---|---|---|
| 2026-04-18 08:09 | 40.90472 | 29.31726 | 321 ft | 0 kts | 153° |
| 2026-04-18 08:51 | 40.90475 | 29.31724 | 321 ft | 2 kts | 153° |
| 2026-04-18 08:51 | 40.90488 | 29.31715 | 321 ft | 2 kts | 153° |
| 2026-04-18 08:52 | 40.90502 | 29.31709 | 321 ft | 2 kts | 172° |
| 2026-04-18 08:52 | 40.90517 | 29.31708 | 321 ft | 2 kts | 186° |
| 2026-04-18 08:52 | 40.90531 | 29.31712 | 321 ft | 2 kts | 200° |
| 2026-04-18 08:52 | 40.90545 | 29.31721 | 321 ft | 2 kts | 214° |
| 2026-04-18 08:53 | 40.90556 | 29.31733 | 321 ft | 2 kts | 229° |
| 2026-04-18 08:53 | 40.90564 | 29.31747 | 321 ft | 0 kts | 242° |
| 2026-04-18 08:53 | 40.90566 | 29.31755 | 321 ft | 0 kts | 244° |
| 2026-04-18 08:54 | 40.90566 | 29.31754 | 321 ft | 0 kts | 244° |
| 2026-04-18 08:55 | 40.90562 | 29.31743 | 321 ft | 2 kts | 242° |
| 2026-04-18 08:55 | 40.90539 | 29.31684 | 321 ft | 10 kts | 244° |
| 2026-04-18 08:55 | 40.90507 | 29.31600 | 321 ft | 10 kts | 241° |
| 2026-04-18 08:55 | 40.90474 | 29.31515 | 321 ft | 12 kts | 244° |
| 2026-04-18 08:56 | 40.90430 | 29.31389 | 321 ft | 18 kts | 245° |
| 2026-04-18 08:56 | 40.90366 | 29.31213 | 321 ft | 24 kts | 244° |
| 2026-04-18 08:56 | 40.90286 | 29.30996 | 321 ft | 26 kts | 245° |
| 2026-04-18 08:56 | 40.90211 | 29.30887 | 321 ft | 16 kts | 172° |
| 2026-04-18 08:57 | 40.90040 | 29.30851 | 321 ft | 17 kts | 233° |
| 2026-04-18 08:57 | 40.89981 | 29.30698 | 321 ft | 18 kts | 241° |
| 2026-04-18 08:57 | 40.89926 | 29.30546 | 321 ft | 18 kts | 246° |
| 2026-04-18 08:58 | 40.89874 | 29.30399 | 321 ft | 18 kts | 243° |
| 2026-04-18 08:58 | 40.89809 | 29.30227 | 321 ft | 24 kts | 244° |
| 2026-04-18 08:58 | 40.89728 | 29.30005 | 321 ft | 27 kts | 243° |
| 2026-04-18 08:58 | 40.89644 | 29.29785 | 321 ft | 26 kts | 244° |
| 2026-04-18 08:59 | 40.89566 | 29.29566 | 321 ft | 23 kts | 244° |
| 2026-04-18 08:59 | 40.89501 | 29.29389 | 321 ft | 18 kts | 245° |
| 2026-04-18 08:59 | 40.89459 | 29.29269 | 321 ft | 11 kts | 246° |
| 2026-04-18 08:59 | 40.89423 | 29.29249 | 321 ft | 7 kts | 169° |
| 2026-04-18 09:00 | 40.89369 | 29.29272 | 321 ft | 3 kts | 155° |
| 2026-04-18 09:00 | 40.89341 | 29.29290 | 321 ft | 0 kts | 154° |
| 2026-04-18 09:00 | 40.89339 | 29.29290 | 321 ft | 0 kts | 154° |
| 2026-04-18 09:00 | 40.89325 | 29.29300 | 321 ft | 6 kts | 153° |
| 2026-04-18 09:01 | 40.89281 | 29.29331 | 321 ft | 1 kts | 139° |
| 2026-04-18 09:01 | 40.89278 | 29.29349 | 321 ft | 3 kts | 86° |
| 2026-04-18 09:01 | 40.89288 | 29.29383 | 321 ft | 0 kts | 65° |
| 2026-04-18 09:03 | 40.89299 | 29.29414 | 321 ft | 17 kts | 64° |
| 2026-04-18 09:03 | 40.89479 | 29.29901 | 321 ft | 97 kts | 64° |
| 2026-04-18 09:03 | 40.89840 | 29.30890 | 322 ft | 136 kts | 63° |
| 2026-04-18 09:04 | 40.90285 | 29.32101 | 457 ft | 151 kts | 64° |
| 2026-04-18 09:04 | 40.90699 | 29.33418 | 1151 ft | 157 kts | 63° |
| 2026-04-18 09:04 | 40.91197 | 29.34600 | 1614 ft | 156 kts | 53° |
| 2026-04-18 09:04 | 40.91752 | 29.35864 | 2254 ft | 167 kts | 59° |
| 2026-04-18 09:05 | 40.92271 | 29.37285 | 2860 ft | 179 kts | 61° |
| 2026-04-18 09:05 | 40.92820 | 29.38847 | 3408 ft | 197 kts | 64° |
| 2026-04-18 09:05 | 40.93105 | 29.40648 | 3985 ft | 201 kts | 88° |
| 2026-04-18 09:05 | 40.92640 | 29.42510 | 4306 ft | 234 kts | 119° |
| 2026-04-18 09:06 | 40.91455 | 29.44120 | 4934 ft | 258 kts | 141° |
| 2026-04-18 09:06 | 40.89867 | 29.45297 | 5623 ft | 275 kts | 149° |
| 2026-04-18 09:06 | 40.88061 | 29.46383 | 6359 ft | 288 kts | 151° |
| 2026-04-18 09:06 | 40.86175 | 29.47337 | 6841 ft | 296 kts | 161° |
| 2026-04-18 09:07 | 40.84084 | 29.47606 | 7461 ft | 312 kts | 185° |
| 2026-04-18 09:07 | 40.82036 | 29.46832 | 8610 ft | 309 kts | 205° |
| 2026-04-18 09:07 | 40.80250 | 29.45227 | 9429 ft | 314 kts | 221° |
| 2026-04-18 09:08 | 40.79326 | 29.44129 | 9941 ft | 315 kts | 224° |
| 2026-04-18 09:08 | 40.77737 | 29.42133 | 10682 ft | 323 kts | 225° |
| 2026-04-18 09:08 | 40.76124 | 29.40094 | 11530 ft | 326 kts | 225° |
| 2026-04-18 09:08 | 40.74482 | 29.38053 | 12392 ft | 328 kts | 224° |
| 2026-04-18 09:09 | 40.72834 | 29.35960 | 13276 ft | 328 kts | 228° |
| 2026-04-18 09:09 | 40.71475 | 29.33589 | 14121 ft | 326 kts | 244° |
| 2026-04-18 09:09 | 40.70773 | 29.30779 | 14865 ft | 326 kts | 266° |
| 2026-04-18 09:09 | 40.70829 | 29.27813 | 15653 ft | 324 kts | 281° |
| 2026-04-18 09:10 | 40.71320 | 29.24927 | 16354 ft | 326 kts | 288° |
| 2026-04-18 09:10 | 40.71978 | 29.22099 | 17083 ft | 328 kts | 290° |
| 2026-04-18 09:10 | 40.72699 | 29.19245 | 17803 ft | 330 kts | 290° |
| 2026-04-18 09:10 | 40.73421 | 29.16397 | 18515 ft | 332 kts | 289° |
| 2026-04-18 09:11 | 40.74151 | 29.13467 | 19156 ft | 336 kts | 289° |
| 2026-04-18 09:11 | 40.74865 | 29.10555 | 19864 ft | 337 kts | 288° |
| 2026-04-18 09:11 | 40.75572 | 29.07636 | 20487 ft | 341 kts | 288° |
| 2026-04-18 09:11 | 40.76282 | 29.04664 | 21142 ft | 342 kts | 287° |
| 2026-04-18 09:12 | 40.76882 | 29.01617 | 21750 ft | 345 kts | 281° |
| 2026-04-18 09:12 | 40.77239 | 28.98507 | 22319 ft | 348 kts | 276° |
| 2026-04-18 09:12 | 40.77467 | 28.95302 | 22884 ft | 351 kts | 274° |
| 2026-04-18 09:12 | 40.77647 | 28.92086 | 23456 ft | 353 kts | 273° |
| 2026-04-18 09:13 | 40.77818 | 28.88867 | 24018 ft | 356 kts | 273° |
| 2026-04-18 09:13 | 40.77990 | 28.85641 | 24559 ft | 358 kts | 273° |
| 2026-04-18 09:13 | 40.78170 | 28.82357 | 25118 ft | 360 kts | 273° |
| 2026-04-18 09:13 | 40.78350 | 28.79067 | 25647 ft | 362 kts | 273° |
| 2026-04-18 09:14 | 40.78534 | 28.75777 | 26155 ft | 364 kts | 273° |
| 2026-04-18 09:14 | 40.78722 | 28.72437 | 26642 ft | 367 kts | 273° |
| 2026-04-18 09:14 | 40.78910 | 28.69082 | 27108 ft | 370 kts | 273° |
| 2026-04-18 09:14 | 40.79099 | 28.65703 | 27575 ft | 372 kts | 273° |
| 2026-04-18 09:15 | 40.79289 | 28.62295 | 28081 ft | 373 kts | 273° |
| 2026-04-18 09:15 | 40.79447 | 28.58869 | 28501 ft | 376 kts | 270° |
| 2026-04-18 09:15 | 40.79441 | 28.55409 | 28939 ft | 377 kts | 267° |
| 2026-04-18 09:15 | 40.79327 | 28.51949 | 29323 ft | 380 kts | 265° |
| 2026-04-18 09:16 | 40.79173 | 28.48469 | 29721 ft | 383 kts | 265° |
| 2026-04-18 09:16 | 40.79015 | 28.44978 | 30133 ft | 384 kts | 265° |
| 2026-04-18 09:16 | 40.78859 | 28.41443 | 30543 ft | 386 kts | 266° |
| 2026-04-18 09:16 | 40.78711 | 28.37915 | 30916 ft | 388 kts | 266° |
| 2026-04-18 09:17 | 40.78567 | 28.34319 | 31294 ft | 389 kts | 265° |
| 2026-04-18 09:17 | 40.78428 | 28.30752 | 31638 ft | 392 kts | 266° |
| 2026-04-18 09:17 | 40.78289 | 28.27172 | 31995 ft | 393 kts | 266° |
| 2026-04-18 09:17 | 40.78190 | 28.23581 | 32353 ft | 395 kts | 268° |
| 2026-04-18 09:18 | 40.78229 | 28.19928 | 32684 ft | 397 kts | 271° |
| 2026-04-18 09:18 | 40.78352 | 28.16287 | 33047 ft | 398 kts | 272° |
| 2026-04-18 09:18 | 40.78503 | 28.12640 | 33337 ft | 401 kts | 272° |
| 2026-04-18 09:18 | 40.78658 | 28.08984 | 33692 ft | 402 kts | 272° |
| 2026-04-18 09:19 | 40.78807 | 28.05306 | 33985 ft | 404 kts | 272° |
| 2026-04-18 09:19 | 40.78947 | 28.01631 | 34298 ft | 405 kts | 272° |
| 2026-04-18 09:19 | 40.79083 | 27.97891 | 34536 ft | 408 kts | 272° |
| 2026-04-18 09:19 | 40.79211 | 27.94177 | 34748 ft | 410 kts | 272° |
| 2026-04-18 09:20 | 40.79336 | 27.90414 | 35006 ft | 410 kts | 272° |
| 2026-04-18 09:20 | 40.79452 | 27.86676 | 35182 ft | 413 kts | 271° |
| 2026-04-18 09:20 | 40.79528 | 27.82896 | 35431 ft | 413 kts | 271° |
| 2026-04-18 09:20 | 40.79570 | 27.79099 | 35719 ft | 411 kts | 270° |
| 2026-04-18 09:21 | 40.79597 | 27.75372 | 35890 ft | 412 kts | 270° |
| 2026-04-18 09:21 | 40.79620 | 27.71564 | 35922 ft | 414 kts | 270° |
| 2026-04-18 09:21 | 40.79697 | 27.64017 | 35936 ft | 411 kts | 272° |
| 2026-04-18 09:22 | 40.80384 | 27.56584 | 35942 ft | 412 kts | 282° |
| 2026-04-18 09:22 | 40.81824 | 27.49274 | 35945 ft | 411 kts | 285° |
| 2026-04-18 09:23 | 40.83406 | 27.42036 | 35949 ft | 412 kts | 285° |
| 2026-04-18 09:23 | 40.84967 | 27.34796 | 35956 ft | 411 kts | 284° |
| 2026-04-18 09:24 | 40.86504 | 27.27513 | 35955 ft | 412 kts | 284° |
| 2026-04-18 09:24 | 40.88017 | 27.20237 | 35956 ft | 411 kts | 284° |
| 2026-04-18 09:25 | 40.89514 | 27.12983 | 35966 ft | 410 kts | 284° |
| 2026-04-18 09:25 | 40.91006 | 27.05717 | 35969 ft | 411 kts | 284° |
| 2026-04-18 09:26 | 40.92197 | 26.98392 | 35960 ft | 408 kts | 276° |
| 2026-04-18 09:26 | 40.92305 | 26.90890 | 35962 ft | 407 kts | 267° |
| 2026-04-18 09:27 | 40.91888 | 26.83461 | 35961 ft | 407 kts | 265° |
| 2026-04-18 09:27 | 40.91397 | 26.76028 | 35964 ft | 407 kts | 265° |
| 2026-04-18 09:28 | 40.90920 | 26.68551 | 35962 ft | 407 kts | 265° |
| 2026-04-18 09:28 | 40.90461 | 26.61085 | 35956 ft | 408 kts | 265° |
| 2026-04-18 09:29 | 40.90004 | 26.53612 | 35960 ft | 408 kts | 265° |
| 2026-04-18 09:29 | 40.89549 | 26.46203 | 35959 ft | 406 kts | 265° |
| 2026-04-18 09:30 | 40.89088 | 26.38768 | 35955 ft | 407 kts | 265° |
| 2026-04-18 09:30 | 40.88626 | 26.31284 | 35958 ft | 406 kts | 266° |
| 2026-04-18 09:31 | 40.88802 | 26.23886 | 35961 ft | 407 kts | 279° |
| 2026-04-18 09:31 | 40.90339 | 26.16712 | 35961 ft | 409 kts | 287° |
| 2026-04-18 09:32 | 40.92325 | 26.09692 | 35956 ft | 408 kts | 289° |
| 2026-04-18 09:32 | 40.94389 | 26.02644 | 35952 ft | 409 kts | 289° |
| 2026-04-18 09:33 | 40.96407 | 25.95603 | 35958 ft | 409 kts | 289° |
| 2026-04-18 09:33 | 40.98386 | 25.88574 | 35968 ft | 410 kts | 289° |
| 2026-04-18 09:34 | 41.00354 | 25.81505 | 35965 ft | 410 kts | 289° |
| 2026-04-18 09:34 | 41.02314 | 25.74413 | 35969 ft | 409 kts | 288° |
| 2026-04-18 09:35 | 41.04269 | 25.67322 | 35959 ft | 409 kts | 289° |
| 2026-04-18 09:35 | 41.06212 | 25.60250 | 35956 ft | 409 kts | 289° |
| 2026-04-18 09:36 | 41.08144 | 25.53189 | 35956 ft | 409 kts | 289° |
| 2026-04-18 09:36 | 41.10086 | 25.46074 | 35955 ft | 410 kts | 289° |
| 2026-04-18 09:37 | 41.12032 | 25.38927 | 35957 ft | 410 kts | 289° |
| 2026-04-18 09:37 | 41.13963 | 25.31812 | 35969 ft | 411 kts | 288° |
| 2026-04-18 09:38 | 41.15884 | 25.24719 | 35961 ft | 410 kts | 288° |
| 2026-04-18 09:38 | 41.17812 | 25.17582 | 35963 ft | 411 kts | 289° |
| 2026-04-18 09:39 | 41.19723 | 25.10481 | 35966 ft | 410 kts | 288° |
| 2026-04-18 09:39 | 41.21640 | 25.03344 | 35970 ft | 411 kts | 289° |
| 2026-04-18 09:40 | 41.23550 | 24.96200 | 35984 ft | 412 kts | 289° |
| 2026-04-18 09:40 | 41.25451 | 24.89075 | 35975 ft | 411 kts | 289° |
| 2026-04-18 09:41 | 41.27349 | 24.81948 | 35973 ft | 410 kts | 289° |
| 2026-04-18 09:41 | 41.28300 | 24.78368 | 35838 ft | 412 kts | 289° |
| 2026-04-18 09:41 | 41.29246 | 24.74801 | 35935 ft | 407 kts | 289° |
| 2026-04-18 09:42 | 41.30183 | 24.71261 | 36153 ft | 412 kts | 289° |
| 2026-04-18 09:42 | 41.31125 | 24.67699 | 36013 ft | 410 kts | 289° |
| 2026-04-18 09:42 | 41.33004 | 24.60582 | 35981 ft | 406 kts | 289° |
| 2026-04-18 09:43 | 41.34877 | 24.53458 | 35982 ft | 409 kts | 289° |
| 2026-04-18 09:43 | 41.36752 | 24.46306 | 35982 ft | 408 kts | 289° |
| 2026-04-18 09:44 | 41.38612 | 24.39191 | 35978 ft | 410 kts | 289° |
| 2026-04-18 09:44 | 41.40480 | 24.32036 | 35973 ft | 409 kts | 289° |
| 2026-04-18 09:45 | 41.42343 | 24.24866 | 35966 ft | 408 kts | 289° |
| 2026-04-18 09:45 | 41.44186 | 24.17758 | 35970 ft | 408 kts | 289° |
| 2026-04-18 09:46 | 41.46033 | 24.10611 | 35977 ft | 408 kts | 289° |
| 2026-04-18 09:46 | 41.47871 | 24.03480 | 35982 ft | 409 kts | 289° |
| 2026-04-18 09:47 | 41.49709 | 23.96334 | 35986 ft | 410 kts | 289° |
| 2026-04-18 09:47 | 41.51550 | 23.89152 | 35988 ft | 409 kts | 289° |
| 2026-04-18 09:48 | 41.53372 | 23.82013 | 35981 ft | 409 kts | 289° |
| 2026-04-18 09:48 | 41.55206 | 23.74811 | 35980 ft | 410 kts | 289° |
| 2026-04-18 09:49 | 41.57030 | 23.67619 | 35976 ft | 409 kts | 289° |
| 2026-04-18 09:49 | 41.58847 | 23.60447 | 35981 ft | 409 kts | 289° |
| 2026-04-18 09:50 | 41.60647 | 23.53311 | 35977 ft | 409 kts | 289° |
| 2026-04-18 09:50 | 41.62462 | 23.46093 | 35982 ft | 410 kts | 289° |
| 2026-04-18 09:51 | 41.64262 | 23.38914 | 35983 ft | 410 kts | 290° |
| 2026-04-18 09:51 | 41.66066 | 23.31704 | 35985 ft | 409 kts | 289° |
| 2026-04-18 09:52 | 41.67858 | 23.24512 | 35981 ft | 410 kts | 289° |
| 2026-04-18 09:52 | 41.69655 | 23.17282 | 35672 ft | 411 kts | 289° |
| 2026-04-18 09:53 | 41.70558 | 23.13640 | 35452 ft | 410 kts | 289° |
| 2026-04-18 09:53 | 41.71451 | 23.10035 | 35228 ft | 409 kts | 289° |
| 2026-04-18 09:53 | 41.72346 | 23.06412 | 35009 ft | 410 kts | 289° |
| 2026-04-18 09:53 | 41.73230 | 23.02834 | 34678 ft | 409 kts | 290° |
| 2026-04-18 09:54 | 41.74124 | 22.99203 | 34149 ft | 408 kts | 290° |
| 2026-04-18 09:54 | 41.75014 | 22.95590 | 33725 ft | 407 kts | 290° |
| 2026-04-18 09:54 | 41.75888 | 22.92031 | 33257 ft | 407 kts | 290° |
| 2026-04-18 09:54 | 41.76783 | 22.88381 | 32727 ft | 407 kts | 290° |
| 2026-04-18 09:55 | 41.77654 | 22.84825 | 32148 ft | 407 kts | 290° |
| 2026-04-18 09:55 | 41.78527 | 22.81247 | 31604 ft | 405 kts | 290° |
| 2026-04-18 09:55 | 41.79401 | 22.77663 | 31077 ft | 402 kts | 290° |
| 2026-04-18 09:55 | 41.80256 | 22.74152 | 30539 ft | 399 kts | 291° |
| 2026-04-18 09:56 | 41.81107 | 22.70654 | 30003 ft | 395 kts | 291° |
| 2026-04-18 09:56 | 41.81949 | 22.67186 | 29497 ft | 391 kts | 291° |
| 2026-04-18 09:56 | 41.82793 | 22.63701 | 28994 ft | 387 kts | 291° |
| 2026-04-18 09:56 | 41.83612 | 22.60325 | 28497 ft | 382 kts | 291° |
| 2026-04-18 09:57 | 41.84431 | 22.56942 | 28009 ft | 378 kts | 291° |
| 2026-04-18 09:57 | 41.85233 | 22.53622 | 27518 ft | 375 kts | 291° |
| 2026-04-18 09:57 | 41.86028 | 22.50327 | 27033 ft | 371 kts | 291° |
| 2026-04-18 09:57 | 41.86817 | 22.47052 | 26552 ft | 367 kts | 291° |
| 2026-04-18 09:58 | 41.87590 | 22.43845 | 26088 ft | 363 kts | 291° |
| 2026-04-18 09:58 | 41.88355 | 22.40657 | 25615 ft | 360 kts | 291° |
| 2026-04-18 09:58 | 41.89121 | 22.37463 | 25138 ft | 356 kts | 291° |
| 2026-04-18 09:58 | 41.89870 | 22.34331 | 24682 ft | 352 kts | 291° |
| 2026-04-18 09:59 | 41.90614 | 22.31228 | 24223 ft | 349 kts | 291° |
| 2026-04-18 09:59 | 41.91364 | 22.28098 | 23766 ft | 354 kts | 291° |
| 2026-04-18 09:59 | 41.92121 | 22.24939 | 23291 ft | 355 kts | 291° |
| 2026-04-18 10:00 | 41.93595 | 22.18745 | 22367 ft | 347 kts | 290° |
| 2026-04-18 10:00 | 41.94317 | 22.15700 | 21918 ft | 343 kts | 291° |
| 2026-04-18 10:00 | 41.95040 | 22.12646 | 21470 ft | 339 kts | 291° |
| 2026-04-18 10:00 | 41.95747 | 22.09660 | 21029 ft | 336 kts | 291° |
| 2026-04-18 10:01 | 41.96447 | 22.06697 | 20586 ft | 332 kts | 291° |
| 2026-04-18 10:01 | 41.97146 | 22.03745 | 20158 ft | 333 kts | 291° |
| 2026-04-18 10:01 | 41.97853 | 22.00764 | 19729 ft | 338 kts | 291° |
| 2026-04-18 10:01 | 41.98556 | 21.97789 | 19272 ft | 336 kts | 291° |
| 2026-04-18 10:02 | 41.99248 | 21.94849 | 18838 ft | 331 kts | 291° |
| 2026-04-18 10:02 | 41.99939 | 21.91900 | 18423 ft | 327 kts | 291° |
| 2026-04-18 10:02 | 42.00613 | 21.89024 | 18000 ft | 323 kts | 291° |
| 2026-04-18 10:02 | 42.01283 | 21.86164 | 17585 ft | 320 kts | 291° |
| 2026-04-18 10:03 | 42.01951 | 21.83307 | 17148 ft | 318 kts | 291° |
| 2026-04-18 10:03 | 42.02616 | 21.80464 | 16724 ft | 322 kts | 291° |
| 2026-04-18 10:03 | 42.03290 | 21.77591 | 16298 ft | 322 kts | 291° |
| 2026-04-18 10:03 | 42.03950 | 21.74771 | 15870 ft | 318 kts | 291° |
| 2026-04-18 10:04 | 42.04613 | 21.71930 | 15454 ft | 315 kts | 291° |
| 2026-04-18 10:04 | 42.05254 | 21.69168 | 15048 ft | 312 kts | 291° |
| 2026-04-18 10:04 | 42.05890 | 21.66416 | 14642 ft | 309 kts | 291° |
| 2026-04-18 10:04 | 42.06527 | 21.63666 | 14227 ft | 306 kts | 291° |
| 2026-04-18 10:05 | 42.07162 | 21.60935 | 13822 ft | 309 kts | 291° |
| 2026-04-18 10:05 | 42.07812 | 21.58143 | 13400 ft | 312 kts | 290° |
| 2026-04-18 10:05 | 42.08446 | 21.55401 | 12994 ft | 309 kts | 291° |
| 2026-04-18 10:05 | 42.09076 | 21.52666 | 12587 ft | 306 kts | 290° |
| 2026-04-18 10:06 | 42.09701 | 21.49951 | 12175 ft | 303 kts | 290° |
| 2026-04-18 10:06 | 42.10332 | 21.47230 | 11765 ft | 301 kts | 290° |
| 2026-04-18 10:06 | 42.10944 | 21.44576 | 11365 ft | 299 kts | 290° |
| 2026-04-18 10:06 | 42.11557 | 21.41905 | 11054 ft | 296 kts | 291° |
| 2026-04-18 10:07 | 42.12165 | 21.39251 | 11027 ft | 300 kts | 290° |
| 2026-04-18 10:07 | 42.12791 | 21.36547 | 11022 ft | 301 kts | 292° |
| 2026-04-18 10:07 | 42.13581 | 21.33995 | 11018 ft | 289 kts | 303° |
| 2026-04-18 10:07 | 42.14860 | 21.32026 | 10968 ft | 271 kts | 329° |
| 2026-04-18 10:08 | 42.16531 | 21.30941 | 10557 ft | 268 kts | 342° |
| 2026-04-18 10:08 | 42.18294 | 21.30129 | 10169 ft | 268 kts | 343° |
| 2026-04-18 10:08 | 42.20025 | 21.29316 | 9841 ft | 265 kts | 342° |
| 2026-04-18 10:08 | 42.21764 | 21.28448 | 9464 ft | 264 kts | 341° |
| 2026-04-18 10:09 | 42.23481 | 21.27556 | 9106 ft | 263 kts | 341° |
| 2026-04-18 10:09 | 42.25166 | 21.26672 | 8743 ft | 261 kts | 341° |
| 2026-04-18 10:09 | 42.26883 | 21.25750 | 8238 ft | 266 kts | 338° |
| 2026-04-18 10:09 | 42.28466 | 21.24472 | 7895 ft | 266 kts | 322° |
| 2026-04-18 10:10 | 42.29750 | 21.22693 | 7379 ft | 270 kts | 313° |
| 2026-04-18 10:10 | 42.30903 | 21.20772 | 6746 ft | 254 kts | 311° |
| 2026-04-18 10:10 | 42.31971 | 21.18999 | 6174 ft | 240 kts | 313° |
| 2026-04-18 10:10 | 42.33052 | 21.17295 | 5770 ft | 236 kts | 314° |
| 2026-04-18 10:11 | 42.34132 | 21.15639 | 5478 ft | 233 kts | 314° |
| 2026-04-18 10:11 | 42.35206 | 21.14004 | 5234 ft | 232 kts | 315° |
| 2026-04-18 10:11 | 42.36262 | 21.12394 | 5150 ft | 231 kts | 315° |
| 2026-04-18 10:11 | 42.37336 | 21.10757 | 5085 ft | 232 kts | 314° |
| 2026-04-18 10:12 | 42.38403 | 21.09124 | 5029 ft | 232 kts | 314° |
| 2026-04-18 10:12 | 42.39459 | 21.07503 | 4994 ft | 220 kts | 314° |
| 2026-04-18 10:12 | 42.40420 | 21.06082 | 4965 ft | 193 kts | 321° |
| 2026-04-18 10:12 | 42.41548 | 21.05274 | 4944 ft | 175 kts | 352° |
| 2026-04-18 10:13 | 42.42749 | 21.05105 | 4795 ft | 174 kts | 356° |
| 2026-04-18 10:13 | 42.43925 | 21.04952 | 4508 ft | 161 kts | 356° |
| 2026-04-18 10:13 | 42.45026 | 21.04822 | 4251 ft | 158 kts | 357° |
| 2026-04-18 10:13 | 42.46121 | 21.04715 | 4005 ft | 159 kts | 358° |
| 2026-04-18 10:14 | 42.47222 | 21.04607 | 3784 ft | 156 kts | 357° |
| 2026-04-18 10:14 | 42.48313 | 21.04492 | 3512 ft | 156 kts | 357° |
| 2026-04-18 10:14 | 42.49330 | 21.04390 | 3281 ft | 139 kts | 358° |
| 2026-04-18 10:14 | 42.50271 | 21.04296 | 3069 ft | 133 kts | 358° |
| 2026-04-18 10:15 | 42.51205 | 21.04204 | 2862 ft | 133 kts | 358° |
| 2026-04-18 10:15 | 42.52125 | 21.04111 | 2666 ft | 133 kts | 358° |
| 2026-04-18 10:15 | 42.53038 | 21.04023 | 2455 ft | 131 kts | 358° |
| 2026-04-18 10:15 | 42.53939 | 21.03922 | 2264 ft | 130 kts | 358° |
| 2026-04-18 10:16 | 42.54850 | 21.03833 | 2056 ft | 130 kts | 358° |
| 2026-04-18 10:16 | 42.55750 | 21.03742 | 1851 ft | 129 kts | 358° |
| 2026-04-18 10:16 | 42.56557 | 21.03666 | 1799 ft | 86 kts | 355° |
| 2026-04-18 10:16 | 42.56992 | 21.03621 | 1794 ft | 56 kts | 355° |
| 2026-04-18 10:17 | 42.57377 | 21.03583 | 1793 ft | 54 kts | 355° |
| 2026-04-18 10:17 | 42.57678 | 21.03551 | 1796 ft | 30 kts | 354° |
| 2026-04-18 10:17 | 42.57792 | 21.03514 | 1798 ft | 13 kts | 336° |
| 2026-04-18 10:17 | 42.57884 | 21.03445 | 1800 ft | 16 kts | 328° |
| 2026-04-18 10:18 | 42.57990 | 21.03355 | 1801 ft | 19 kts | 328° |
| 2026-04-18 10:18 | 42.57986 | 21.03286 | 1803 ft | 11 kts | 194° |
| 2026-04-18 10:18 | 42.57877 | 21.03284 | 1803 ft | 18 kts | 176° |
| 2026-04-18 10:18 | 42.57746 | 21.03297 | 1800 ft | 19 kts | 176° |
| 2026-04-18 10:19 | 42.57637 | 21.03307 | 1799 ft | 11 kts | 175° |
| 2026-04-18 10:19 | 42.57599 | 21.03284 | 1800 ft | 7 kts | 262° |
| 2026-04-18 10:19 | 42.57571 | 21.03218 | 1800 ft | 5 kts | 216° |
| 2026-04-18 10:19 | 42.57550 | 21.03172 | 1800 ft | 5 kts | 262° |
| 2026-04-18 10:20 | 42.57547 | 21.03131 | 1800 ft | 2 kts | 265° |
| 2026-04-18 10:20 | 42.57547 | 21.03124 | 1800 ft | 0 kts | 265° |